Station Historical Data
Daily Summary for March 28, 2017 Units:  Metric    English   Both
« Previous Day
Next Day »
Daily Weekly Monthly Yearly Custom
  High: Low: Average:
Temperature: 8.8 °C 5.7 °C 7.4 °C
Dew Point: 7.9 °C 2.5 °C 5.3 °C
Humidity: 94% 78% 87%
Wind Speed: 14.5km/h 0km/h 3.5km/h
Wind Gust: 16.1km/h - -
Wind- - WSW
Pressure: 1020.9 hPa 1011.4 hPa -
Precipitation: 0 mm    
Historical Graphs
 
 
Tabular Data for March 28, 2017
Time Temperature Dew Point Pressure Wind Wind Speed Wind Gust Humidity Rainfall Rate (Hourly)
00:04 8 °C 6.8 °C 1012.8 hPa Calm     92% 0 mm
00:09 7.9 °C 6.7 °C 1012.8 hPa Calm     92% 0 mm
00:14 7.8 °C 6.6 °C 1012.8 hPa Calm     92% 0 mm
00:19 7.7 °C 6.5 °C 1012.8 hPa Calm     92% 0 mm
00:24 7.7 °C 6.4 °C 1012.8 hPa Calm     92% 0 mm
00:29 7.6 °C 6.4 °C 1012.8 hPa Calm     92% 0 mm
00:34 7.6 °C 6.6 °C 1012.8 hPa Calm     93% 0 mm
00:39 7.6 °C 6.3 °C 1012.8 hPa Calm     92% 0 mm
00:44 7.4 °C 6.2 °C 1012.8 hPa Calm     92% 0 mm
00:49 7.4 °C 6.2 °C 1012.8 hPa Calm     92% 0 mm
00:54 7.3 °C 6.2 °C 1012.8 hPa Calm     93% 0 mm
00:59 7.3 °C 6.2 °C 1012.8 hPa Calm     93% 0 mm
01:04 7.3 °C 6.2 °C 1012.8 hPa Calm     93% 0 mm
01:09 7.4 °C 6.4 °C 1012.8 hPa SW 1.6 km/h 4.8 km/h 93% 0 mm
01:14 7.6 °C 6.6 °C 1012.4 hPa SW 3.2 km/h 4.8 km/h 93% 0 mm
01:19 7.6 °C 6.6 °C 1012.4 hPa SW 1.6 km/h 4.8 km/h 93% 0 mm
01:24 7.4 °C 6.2 °C 1012.4 hPa Calm   3.2 km/h 92% 0 mm
01:29 7.3 °C 6.2 °C 1012.4 hPa Calm     93% 0 mm
01:34 7.2 °C 6.2 °C 1012.4 hPa Calm     93% 0 mm
01:39 7.4 °C 6.3 °C 1012.8 hPa Calm     93% 0 mm
01:44 7.7 °C 6.6 °C 1012.4 hPa Calm     93% 0 mm
01:49 7.8 °C 6.7 °C 1012.4 hPa Calm     93% 0 mm
01:54 7.8 °C 6.8 °C 1012.8 hPa Calm     93% 0 mm
01:59 7.8 °C 6.7 °C 1012.8 hPa Calm     93% 0 mm
02:04 7.7 °C 6.7 °C 1012.4 hPa Calm     93% 0 mm
02:09 7.6 °C 6.6 °C 1012.4 hPa Calm     93% 0 mm
02:14 7.5 °C 6.3 °C 1012.1 hPa Calm     92% 0 mm
02:19 7.4 °C 6.3 °C 1012.1 hPa Calm     93% 0 mm
02:24 7.2 °C 6 °C 1012.1 hPa Calm     92% 0 mm
02:29 7 °C 5.8 °C 1012.1 hPa Calm     92% 0 mm
02:34 6.8 °C 5.8 °C 1012.1 hPa Calm     93% 0 mm
02:39 6.8 °C 5.7 °C 1012.1 hPa Calm     93% 0 mm
02:44 6.8 °C 5.8 °C 1012.1 hPa Calm     93% 0 mm
02:49 6.8 °C 5.8 °C 1011.7 hPa Calm     93% 0 mm
02:54 6.7 °C 5.6 °C 1011.7 hPa Calm     93% 0 mm
02:59 6.7 °C 5.7 °C 1011.7 hPa Calm     93% 0 mm
03:04 6.8 °C 5.7 °C 1011.7 hPa Calm     93% 0 mm
03:09 6.9 °C 5.8 °C 1011.7 hPa Calm     93% 0 mm
03:14 6.9 °C 5.8 °C 1011.7 hPa Calm     93% 0 mm
03:19 7.1 °C 6 °C 1011.7 hPa Calm     93% 0 mm
03:24 7.1 °C 6 °C 1011.7 hPa Calm     93% 0 mm
03:29 7.1 °C 6 °C 1011.7 hPa Calm     93% 0 mm
03:34 7.1 °C 6 °C 1011.7 hPa Calm     93% 0 mm
03:39 6.9 °C 5.8 °C 1011.7 hPa Calm     93% 0 mm
03:44 6.8 °C 5.7 °C 1011.7 hPa Calm     93% 0 mm
03:49 6.6 °C 5.5 °C 1012.1 hPa Calm     93% 0 mm
03:54 6.4 °C 5.4 °C 1011.7 hPa Calm     93% 0 mm
03:59 6.3 °C 5.3 °C 1011.7 hPa Calm     93% 0 mm
04:04 6.2 °C 5.1 °C 1011.7 hPa Calm     93% 0 mm
04:09 6.1 °C 5.2 °C 1011.7 hPa Calm     94% 0 mm
04:14 6.2 °C 5.3 °C 1011.7 hPa Calm     94% 0 mm
04:19 6.3 °C 5.4 °C 1011.7 hPa Calm     94% 0 mm
04:24 6.3 °C 5.4 °C 1011.4 hPa Calm     94% 0 mm
04:29 6.5 °C 5.6 °C 1011.4 hPa Calm     94% 0 mm
04:34 6.4 °C 5.6 °C 1011.7 hPa Calm     94% 0 mm
04:39 6.5 °C 5.6 °C 1011.7 hPa Calm     94% 0 mm
04:44 6.5 °C 5.6 °C 1011.7 hPa Calm     94% 0 mm
04:49 6.6 °C 5.7 °C 1011.7 hPa Calm     94% 0 mm
04:54 6.7 °C 5.8 °C 1011.7 hPa Calm     94% 0 mm
04:59 6.9 °C 6 °C 1011.4 hPa Calm     94% 0 mm
05:04 7.1 °C 6.2 °C 1011.4 hPa Calm     94% 0 mm
05:09 7.3 °C 6.4 °C 1011.7 hPa Calm     94% 0 mm
05:14 7.3 °C 6.4 °C 1011.7 hPa NW 3.2 km/h 3.2 km/h 94% 0 mm
05:19 7.3 °C 6.4 °C 1011.7 hPa Calm   4.8 km/h 94% 0 mm
05:24 7.4 °C 6.5 °C 1011.7 hPa Calm     94% 0 mm
05:29 7.4 °C 6.5 °C 1011.7 hPa Calm     94% 0 mm
05:34 7.4 °C 6.5 °C 1011.7 hPa Calm     94% 0 mm
05:39 7.4 °C 6.5 °C 1011.7 hPa Calm     94% 0 mm
05:44 7.4 °C 6.6 °C 1011.7 hPa Calm     94% 0 mm
05:49 7.4 °C 6.6 °C 1012.1 hPa Calm     94% 0 mm
05:54 7.4 °C 6.6 °C 1012.1 hPa Calm     94% 0 mm
05:59 7.5 °C 6.6 °C 1011.7 hPa Calm     94% 0 mm
06:04 7.7 °C 6.8 °C 1011.7 hPa Calm     94% 0 mm
06:09 7.9 °C 7 °C 1011.7 hPa Calm     94% 0 mm
06:14 8 °C 7.1 °C 1011.7 hPa Calm     94% 0 mm
06:19 7.9 °C 7.1 °C 1012.1 hPa Calm     94% 0 mm
06:24 7.9 °C 7.1 °C 1012.1 hPa Calm     94% 0 mm
06:29 8 °C 7.1 °C 1012.1 hPa Calm     94% 0 mm
06:34 8.1 °C 7.2 °C 1012.1 hPa Calm     94% 0 mm
06:39 8.1 °C 7.2 °C 1012.1 hPa Calm     94% 0 mm
06:44 8.1 °C 7.2 °C 1012.1 hPa Calm     94% 0 mm
06:49 8.1 °C 7.2 °C 1012.4 hPa Calm     94% 0 mm
06:54 8 °C 7.1 °C 1012.4 hPa Calm     94% 0 mm
06:59 8.1 °C 7.2 °C 1012.4 hPa Calm     94% 0 mm
07:04 8.2 °C 7.3 °C 1012.8 hPa Calm     94% 0 mm
07:09 8.2 °C 7.3 °C 1012.8 hPa Calm     94% 0 mm
07:14 8.2 °C 7.3 °C 1012.8 hPa Calm     94% 0 mm
07:19 8.1 °C 7.1 °C 1012.8 hPa Calm     93% 0 mm
07:24 8.1 °C 7.1 °C 1013.1 hPa Calm     93% 0 mm
07:29 8.1 °C 7 °C 1013.1 hPa Calm     93% 0 mm
07:34 8.2 °C 7.3 °C 1013.1 hPa Calm     94% 0 mm
07:39 8.2 °C 7.3 °C 1013.1 hPa Calm     94% 0 mm
07:44 8.4 °C 7.5 °C 1013.1 hPa Calm     94% 0 mm
07:49 8.6 °C 7.7 °C 1013.1 hPa Calm   8 km/h 94% 0 mm
07:54 8.7 °C 7.8 °C 1013.1 hPa North 1.6 km/h 8 km/h 94% 0 mm
07:59 8.8 °C 7.9 °C 1013.4 hPa North 3.2 km/h 6.4 km/h 94% 0 mm
08:04 8.8 °C 7.7 °C 1013.1 hPa North 6.4 km/h 11.3 km/h 93% 0 mm
08:09 8.8 °C 7.9 °C 1013.4 hPa Calm   6.4 km/h 94% 0 mm
08:14 8.8 °C 7.7 °C 1013.4 hPa NNW 3.2 km/h 9.7 km/h 93% 0 mm
08:19 8.7 °C 7.7 °C 1013.4 hPa North 3.2 km/h 9.7 km/h 93% 0 mm
08:24 8.7 °C 7.8 °C 1013.4 hPa North 4.8 km/h 6.4 km/h 94% 0 mm
08:29 8.4 °C 7.4 °C 1013.4 hPa NNW 4.8 km/h 9.7 km/h 93% 0 mm
08:34 8.2 °C 7.2 °C 1013.4 hPa North 1.6 km/h 12.9 km/h 93% 0 mm
08:39 8.2 °C 7.3 °C 1013.4 hPa North 6.4 km/h 9.7 km/h 94% 0 mm
08:44 8.2 °C 7.1 °C 1013.4 hPa North 3.2 km/h 9.7 km/h 93% 0 mm
08:49 8.1 °C 7 °C 1013.4 hPa North 4.8 km/h 9.7 km/h 93% 0 mm
08:54 8.1 °C 7 °C 1013.8 hPa North 4.8 km/h 8 km/h 93% 0 mm
08:59 8.1 °C 7 °C 1013.8 hPa NNE 4.8 km/h 8 km/h 93% 0 mm
09:04 8.1 °C 7 °C 1013.8 hPa NNW 1.6 km/h 6.4 km/h 93% 0 mm
09:09 8.1 °C 7.1 °C 1013.8 hPa NNE 3.2 km/h 6.4 km/h 93% 0 mm
09:14 8.1 °C 7.1 °C 1013.8 hPa North 4.8 km/h 9.7 km/h 93% 0 mm
09:19 8.2 °C 7.1 °C 1013.8 hPa North 4.8 km/h 9.7 km/h 93% 0 mm
09:24 8.2 °C 7 °C 1013.8 hPa North 3.2 km/h 8 km/h 92% 0 mm
09:29 8.2 °C 6.9 °C 1013.8 hPa NNE 3.2 km/h 8 km/h 92% 0 mm
09:34 8.3 °C 7.1 °C 1013.8 hPa North 3.2 km/h 6.4 km/h 92% 0 mm
09:39 8.2 °C 6.8 °C 1013.8 hPa NNE 6.4 km/h 9.7 km/h 91% 0 mm
09:44 8.2 °C 6.8 °C 1013.8 hPa NNW 4.8 km/h 8 km/h 91% 0 mm
09:49 8.2 °C 6.8 °C 1013.8 hPa North 4.8 km/h 9.7 km/h 91% 0 mm
09:54 8.2 °C 6.6 °C 1013.8 hPa North 4.8 km/h 11.3 km/h 90% 0 mm
09:59 8.3 °C 6.7 °C 1014.1 hPa North 4.8 km/h 11.3 km/h 90% 0 mm
10:04 8.1 °C 6.4 °C 1014.1 hPa North 4.8 km/h 16.1 km/h 89% 0 mm
10:09 7.9 °C 6.2 °C 1014.1 hPa North 6.4 km/h 11.3 km/h 89% 0 mm
10:14 7.8 °C 6.1 °C 1014.1 hPa NNE 8 km/h 12.9 km/h 89% 0 mm
10:19 7.7 °C 6 °C 1014.1 hPa North 3.2 km/h 11.3 km/h 89% 0 mm
10:24 7.7 °C 5.9 °C 1014.1 hPa NNW 4.8 km/h 9.7 km/h 89% 0 mm
10:29 7.6 °C 5.8 °C 1014.4 hPa NNE 6.4 km/h 12.9 km/h 89% 0 mm
10:34 7.4 °C 5.7 °C 1014.4 hPa North 3.2 km/h 9.7 km/h 89% 0 mm
10:39 7.5 °C 5.7 °C 1014.4 hPa North 3.2 km/h 8 km/h 88% 0 mm
10:44 7.6 °C 5.7 °C 1014.4 hPa North 1.6 km/h 6.4 km/h 88% 0 mm
10:49 7.6 °C 5.6 °C 1014.4 hPa North 4.8 km/h 9.7 km/h 87% 0 mm
10:54 7.7 °C 5.5 °C 1014.8 hPa North 4.8 km/h 9.7 km/h 86% 0 mm
10:59 7.8 °C 5.4 °C 1014.8 hPa North 6.4 km/h 12.9 km/h 85% 0 mm
11:04 7.8 °C 5.3 °C 1014.8 hPa North 6.4 km/h 11.3 km/h 84% 0 mm
11:09 7.8 °C 5.2 °C 1014.8 hPa NNW 4.8 km/h 11.3 km/h 84% 0 mm
11:14 7.7 °C 5.2 °C 1014.8 hPa North 8 km/h 16.1 km/h 84% 0 mm
11:19 7.7 °C 5.1 °C 1014.8 hPa NNW 6.4 km/h 16.1 km/h 84% 0 mm
11:24 7.7 °C 5 °C 1014.8 hPa North 6.4 km/h 12.9 km/h 83% 0 mm
11:29 7.7 °C 5.2 °C 1014.8 hPa North 4.8 km/h 9.7 km/h 84% 0 mm
11:34 7.8 °C 5.3 °C 1014.8 hPa NNW 11.3 km/h 11.3 km/h 84% 0 mm
11:39 7.7 °C 5 °C 1014.8 hPa North 4.8 km/h 12.9 km/h 83% 0 mm
11:44 7.6 °C 4.8 °C 1014.8 hPa NNW 3.2 km/h 14.5 km/h 83% 0 mm
11:49 7.5 °C 4.8 °C 1014.8 hPa North 6.4 km/h 14.5 km/h 83% 0 mm
11:54 7.6 °C 4.8 °C 1014.8 hPa North 6.4 km/h 12.9 km/h 83% 0 mm
11:59 7.6 °C 4.8 °C 1014.8 hPa North 6.4 km/h 12.9 km/h 83% 0 mm
12:04 7.3 °C 4.6 °C 1014.8 hPa North 3.2 km/h 11.3 km/h 83% 0 mm
12:09 7.4 °C 4.7 °C 1014.8 hPa NNW 14.5 km/h 14.5 km/h 83% 0 mm
12:14 7.3 °C 4.6 °C 1014.8 hPa NNW 1.6 km/h 14.5 km/h 83% 0 mm
12:19 7.1 °C 4.2 °C 1014.8 hPa North 6.4 km/h 14.5 km/h 82% 0 mm
12:24 6.9 °C 4.2 °C 1014.8 hPa NNW 6.4 km/h 12.9 km/h 83% 0 mm
12:29 6.8 °C 4.1 °C 1014.8 hPa NNW 8 km/h 14.5 km/h 83% 0 mm
12:34 6.9 °C 4.3 °C 1014.8 hPa NNW 3.2 km/h 9.7 km/h 83% 0 mm
12:39 7.2 °C 4.7 °C 1014.8 hPa NNE 4.8 km/h 11.3 km/h 84% 0 mm
12:44 7.3 °C 4.4 °C 1014.8 hPa North 6.4 km/h 11.3 km/h 82% 0 mm
12:49 7.3 °C 4.4 °C 1014.8 hPa North 11.3 km/h 16.1 km/h 82% 0 mm
12:54 7.4 °C 4.6 °C 1014.8 hPa North 6.4 km/h 16.1 km/h 82% 0 mm
12:59 7.5 °C 4.4 °C 1014.8 hPa North 6.4 km/h 12.9 km/h 81% 0 mm
13:04 7.6 °C 4.7 °C 1014.8 hPa North 4.8 km/h 11.3 km/h 82% 0 mm
13:09 7.6 °C 4.5 °C 1014.8 hPa North 4.8 km/h 12.9 km/h 81% 0 mm
13:14 7.6 °C 4.6 °C 1014.8 hPa NNW 4.8 km/h 12.9 km/h 81% 0 mm
13:19 7.6 °C 4.5 °C 1014.8 hPa NE 4.8 km/h 12.9 km/h 81% 0 mm
13:24 7.7 °C 4.6 °C 1014.8 hPa North 6.4 km/h 12.9 km/h 81% 0 mm
13:29 7.7 °C 4.4 °C 1014.8 hPa North 6.4 km/h 14.5 km/h 80% 0 mm
13:34 7.6 °C 4.3 °C 1014.8 hPa North 8 km/h 14.5 km/h 80% 0 mm
13:39 7.7 °C 4.6 °C 1014.8 hPa North 8 km/h 9.7 km/h 81% 0 mm
13:44 7.7 °C 4.6 °C 1014.8 hPa North 1.6 km/h 9.7 km/h 81% 0 mm
13:49 7.6 °C 4.3 °C 1014.8 hPa NE 4.8 km/h 12.9 km/h 80% 0 mm
13:54 7.5 °C 4.3 °C 1014.8 hPa North 6.4 km/h 12.9 km/h 80% 0 mm
13:59 7.6 °C 4.6 °C 1015.1 hPa North 6.4 km/h 14.5 km/h 81% 0 mm
14:04 7.6 °C 4.4 °C 1015.1 hPa NNW 3.2 km/h 14.5 km/h 80% 0 mm
14:09 7.6 °C 4.5 °C 1015.1 hPa NW 3.2 km/h 14.5 km/h 81% 0 mm
14:14 7.6 °C 4.5 °C 1015.1 hPa NNE 6.4 km/h 12.9 km/h 81% 0 mm
14:19 7.6 °C 4.6 °C 1015.1 hPa NNW 3.2 km/h 9.7 km/h 81% 0 mm
14:24 7.8 °C 4.6 °C 1015.1 hPa North 9.7 km/h 11.3 km/h 80% 0 mm
14:29 7.6 °C 4.4 °C 1015.1 hPa North 4.8 km/h 11.3 km/h 80% 0 mm
14:34 7.6 °C 4.4 °C 1015.1 hPa North 6.4 km/h 11.3 km/h 80% 0 mm
14:39 7.7 °C 4.6 °C 1015.1 hPa North 4.8 km/h 14.5 km/h 81% 0 mm
14:44 7.7 °C 4.5 °C 1015.1 hPa North 6.4 km/h 8 km/h 80% 0 mm
14:49 7.8 °C 4.6 °C 1015.1 hPa North 3.2 km/h 8 km/h 80% 0 mm
14:54 7.7 °C 4.5 °C 1015.1 hPa North 4.8 km/h 8 km/h 80% 0 mm
14:59 7.9 °C 4.9 °C 1015.1 hPa North 3.2 km/h 8 km/h 81% 0 mm
15:04 7.8 °C 4.6 °C 1015.5 hPa NNW 4.8 km/h 9.7 km/h 80% 0 mm
15:09 7.8 °C 4.6 °C 1015.5 hPa NNW 4.8 km/h 11.3 km/h 80% 0 mm
15:14 8.1 °C 4.8 °C 1015.5 hPa North 3.2 km/h 8 km/h 80% 0 mm
15:19 8.2 °C 4.7 °C 1015.5 hPa North 3.2 km/h 12.9 km/h 79% 0 mm
15:24 8.3 °C 5.1 °C 1015.5 hPa NW 3.2 km/h 8 km/h 80% 0 mm
15:29 8.3 °C 4.8 °C 1015.5 hPa NNW 4.8 km/h 11.3 km/h 79% 0 mm
15:34 8.3 °C 4.8 °C 1015.5 hPa North 6.4 km/h 11.3 km/h 79% 0 mm
15:39 8.4 °C 5 °C 1015.5 hPa North 4.8 km/h 11.3 km/h 79% 0 mm
15:44 8.6 °C 5.1 °C 1015.5 hPa North 4.8 km/h 11.3 km/h 79% 0 mm
15:49 8.6 °C 5 °C 1015.5 hPa NNW 4.8 km/h 11.3 km/h 78% 0 mm
15:54 8.5 °C 5.1 °C 1015.5 hPa NNW 4.8 km/h 11.3 km/h 79% 0 mm
15:59 8.3 °C 4.9 °C 1015.5 hPa NNW 3.2 km/h 9.7 km/h 79% 0 mm
16:04 8.3 °C 4.8 °C 1015.8 hPa North 4.8 km/h 11.3 km/h 79% 0 mm
16:09 8 °C 4.6 °C 1015.8 hPa North 11.3 km/h 12.9 km/h 79% 0 mm
16:14 8 °C 4.8 °C 1015.8 hPa North 6.4 km/h 16.1 km/h 80% 0 mm
16:19 7.8 °C 4.6 °C 1015.8 hPa North 8 km/h 14.5 km/h 80% 0 mm
16:24 7.9 °C 4.8 °C 1015.8 hPa NW 3.2 km/h 12.9 km/h 81% 0 mm
16:29 7.9 °C 4.7 °C 1015.8 hPa North 6.4 km/h 14.5 km/h 80% 0 mm
16:34 7.8 °C 4.6 °C 1016.1 hPa North 1.6 km/h 12.9 km/h 80% 0 mm
16:39 7.8 °C 4.6 °C 1016.1 hPa North 6.4 km/h 12.9 km/h 80% 0 mm
16:44 7.9 °C 4.7 °C 1016.1 hPa NNW 6.4 km/h 11.3 km/h 80% 0 mm
16:49 7.9 °C 4.7 °C 1016.1 hPa North 4.8 km/h 11.3 km/h 80% 0 mm
16:54 8.1 °C 4.9 °C 1016.1 hPa North 4.8 km/h 14.5 km/h 80% 0 mm
16:59 8.2 °C 4.9 °C 1016.1 hPa North 4.8 km/h 14.5 km/h 80% 0 mm
17:04 8.2 °C 5 °C 1016.5 hPa NE 8 km/h 12.9 km/h 80% 0 mm
17:09 8.2 °C 5 °C 1016.5 hPa North 3.2 km/h 12.9 km/h 80% 0 mm
17:14 8.2 °C 5 °C 1016.5 hPa NNE 4.8 km/h 9.7 km/h 80% 0 mm
17:19 8.2 °C 5 °C 1016.5 hPa NNE 3.2 km/h 11.3 km/h 80% 0 mm
17:24 8.2 °C 5.1 °C 1016.8 hPa North 8 km/h 9.7 km/h 81% 0 mm
17:29 8.1 °C 5.1 °C 1016.8 hPa NNE 8 km/h 12.9 km/h 81% 0 mm
17:34 8.1 °C 5 °C 1016.8 hPa NNW 3.2 km/h 11.3 km/h 81% 0 mm
17:39 8.1 °C 5 °C 1016.8 hPa North 8 km/h 9.7 km/h 81% 0 mm
17:44 8 °C 4.9 °C 1016.8 hPa North 4.8 km/h 9.7 km/h 81% 0 mm
17:49 7.9 °C 4.9 °C 1016.8 hPa North 4.8 km/h 9.7 km/h 81% 0 mm
17:54 7.9 °C 4.9 °C 1016.8 hPa North 6.4 km/h 12.9 km/h 81% 0 mm
17:59 7.9 °C 4.9 °C 1016.8 hPa North 4.8 km/h 12.9 km/h 81% 0 mm
18:04 7.9 °C 4.9 °C 1016.8 hPa North 4.8 km/h 9.7 km/h 81% 0 mm
18:09 7.8 °C 4.8 °C 1017.2 hPa North 4.8 km/h 9.7 km/h 81% 0 mm
18:14 7.9 °C 4.8 °C 1017.2 hPa North 4.8 km/h 9.7 km/h 81% 0 mm
18:19 7.9 °C 4.8 °C 1017.2 hPa NNE 6.4 km/h 9.7 km/h 81% 0 mm
18:24 7.8 °C 4.9 °C 1017.5 hPa NNW 6.4 km/h 11.3 km/h 82% 0 mm
18:29 7.7 °C 4.8 °C 1017.5 hPa North 8 km/h 14.5 km/h 82% 0 mm
18:34 7.7 °C 4.8 °C 1017.5 hPa North 8 km/h 12.9 km/h 82% 0 mm
18:39 7.7 °C 4.8 °C 1017.8 hPa NNW 4.8 km/h 9.7 km/h 82% 0 mm
18:44 7.7 °C 4.8 °C 1017.8 hPa North 6.4 km/h 12.9 km/h 82% 0 mm
18:49 7.6 °C 4.7 °C 1017.8 hPa North 6.4 km/h 14.5 km/h 82% 0 mm
18:54 7.6 °C 4.7 °C 1017.8 hPa North 6.4 km/h 16.1 km/h 82% 0 mm
18:59 7.6 °C 4.7 °C 1018.2 hPa North 4.8 km/h 16.1 km/h 82% 0 mm
19:04 7.5 °C 4.4 °C 1018.2 hPa North 4.8 km/h 11.3 km/h 81% 0 mm
19:09 7.4 °C 4.6 °C 1018.2 hPa NNW 6.4 km/h 11.3 km/h 82% 0 mm
19:14 7.4 °C 4.5 °C 1018.2 hPa NNW 3.2 km/h 9.7 km/h 82% 0 mm
19:19 7.3 °C 4.4 °C 1018.5 hPa NNE 6.4 km/h 12.9 km/h 82% 0 mm
19:24 7.3 °C 4.4 °C 1018.5 hPa NNE 6.4 km/h 14.5 km/h 82% 0 mm
19:29 7.1 °C 4.4 °C 1018.5 hPa NNE 6.4 km/h 11.3 km/h 83% 0 mm
19:34 6.9 °C 4.4 °C 1018.5 hPa North 6.4 km/h 11.3 km/h 84% 0 mm
19:39 6.9 °C 4.4 °C 1018.5 hPa North 3.2 km/h 16.1 km/h 84% 0 mm
19:44 6.8 °C 4.5 °C 1018.5 hPa North 4.8 km/h 14.5 km/h 85% 0 mm
19:49 6.8 °C 4.4 °C 1018.8 hPa North 6.4 km/h 14.5 km/h 85% 0 mm
19:54 6.7 °C 4.4 °C 1018.8 hPa North 4.8 km/h 14.5 km/h 85% 0 mm
19:59 6.7 °C 4.4 °C 1018.8 hPa North 4.8 km/h 12.9 km/h 85% 0 mm
20:04 6.7 °C 4.2 °C 1018.8 hPa North 6.4 km/h 14.5 km/h 84% 0 mm
20:09 6.7 °C 4.2 °C 1019.2 hPa North 3.2 km/h 14.5 km/h 84% 0 mm
20:14 6.7 °C 4 °C 1019.2 hPa NNW 4.8 km/h 9.7 km/h 83% 0 mm
20:19 6.6 °C 3.9 °C 1019.2 hPa NNE 9.7 km/h 11.3 km/h 83% 0 mm
20:24 6.6 °C 3.9 °C 1019.2 hPa NNW 6.4 km/h 11.3 km/h 83% 0 mm
20:29 6.6 °C 3.9 °C 1019.5 hPa North 6.4 km/h 12.9 km/h 83% 0 mm
20:34 6.5 °C 3.7 °C 1019.5 hPa NNE 4.8 km/h 11.3 km/h 82% 0 mm
20:39 6.5 °C 3.7 °C 1019.5 hPa North 1.6 km/h 12.9 km/h 82% 0 mm
20:44 6.5 °C 3.7 °C 1019.9 hPa North 6.4 km/h 9.7 km/h 82% 0 mm
20:49 6.5 °C 3.7 °C 1019.9 hPa North 4.8 km/h 12.9 km/h 82% 0 mm
20:54 6.4 °C 3.6 °C 1019.9 hPa North 4.8 km/h 12.9 km/h 82% 0 mm
20:59 6.5 °C 3.7 °C 1019.9 hPa North 3.2 km/h 8 km/h 82% 0 mm
21:04 6.4 °C 3.6 °C 1019.9 hPa NNW 3.2 km/h 6.4 km/h 82% 0 mm
21:09 6.4 °C 3.6 °C 1019.9 hPa NW 4.8 km/h 8 km/h 82% 0 mm
21:14 6.4 °C 3.6 °C 1019.9 hPa NW 4.8 km/h 12.9 km/h 82% 0 mm
21:19 6.3 °C 3.3 °C 1020.2 hPa NNW 4.8 km/h 12.9 km/h 81% 0 mm
21:24 6.3 °C 3.3 °C 1020.2 hPa NNW 8 km/h 8 km/h 81% 0 mm
21:29 6.3 °C 3.3 °C 1020.2 hPa NW 4.8 km/h 9.7 km/h 81% 0 mm
21:34 6.3 °C 3.3 °C 1020.2 hPa North 6.4 km/h 11.3 km/h 81% 0 mm
21:39 6.2 °C 3.2 °C 1020.2 hPa NNW 11.3 km/h 11.3 km/h 81% 0 mm
21:44 6.2 °C 3.2 °C 1020.5 hPa NNW 8 km/h 12.9 km/h 81% 0 mm
21:49 6.2 °C 3.2 °C 1020.5 hPa North 6.4 km/h 12.9 km/h 81% 0 mm
21:54 6.2 °C 3.2 °C 1020.5 hPa North 4.8 km/h 8 km/h 81% 0 mm
21:59 6.1 °C 3.1 °C 1020.5 hPa North 4.8 km/h 8 km/h 81% 0 mm
22:04 6.1 °C 3.1 °C 1020.5 hPa NNW 4.8 km/h 11.3 km/h 81% 0 mm
22:09 6 °C 3 °C 1020.9 hPa NW 3.2 km/h 14.5 km/h 81% 0 mm
22:14 6 °C 3 °C 1020.9 hPa NNW 4.8 km/h 8 km/h 81% 0 mm
22:19 5.9 °C 2.9 °C 1020.9 hPa NNW 4.8 km/h 12.9 km/h 81% 0 mm
22:24 5.9 °C 2.9 °C 1020.9 hPa NNW 4.8 km/h 12.9 km/h 81% 0 mm
22:29 5.9 °C 2.9 °C 1020.9 hPa NNW 3.2 km/h 8 km/h 81% 0 mm
22:34 5.9 °C 2.9 °C 1020.9 hPa NW 3.2 km/h 9.7 km/h 81% 0 mm
22:39 5.8 °C 2.8 °C 1020.9 hPa NNW 6.4 km/h 11.3 km/h 81% 0 mm
22:44 5.8 °C 2.8 °C 1020.9 hPa NNW 4.8 km/h 8 km/h 81% 0 mm
22:49 5.8 °C 2.8 °C 1020.9 hPa NNW 3.2 km/h 9.7 km/h 81% 0 mm
22:54 5.8 °C 2.8 °C 1020.9 hPa NNW 4.8 km/h 11.3 km/h 81% 0 mm
22:59 5.8 °C 2.8 °C 1020.9 hPa North 3.2 km/h 12.9 km/h 81% 0 mm
23:04 5.8 °C 2.8 °C 1020.9 hPa North 4.8 km/h 8 km/h 81% 0 mm
23:09 5.8 °C 2.8 °C 1020.9 hPa NNW 3.2 km/h 8 km/h 81% 0 mm
23:14 5.7 °C 2.7 °C 1020.9 hPa NW 1.6 km/h 4.8 km/h 81% 0 mm
23:19 5.8 °C 2.8 °C 1020.9 hPa NNW 1.6 km/h 4.8 km/h 81% 0 mm
23:24 5.7 °C 2.7 °C 1020.9 hPa NNW 3.2 km/h 8 km/h 81% 0 mm
23:29 5.7 °C 2.7 °C 1020.9 hPa NNW 3.2 km/h 8 km/h 81% 0 mm
23:34 5.7 °C 2.7 °C 1020.9 hPa NNW 3.2 km/h 8 km/h 81% 0 mm
23:39 5.7 °C 2.7 °C 1020.9 hPa NNW 4.8 km/h 8 km/h 81% 0 mm
23:44 5.7 °C 2.7 °C 1020.9 hPa NNW 4.8 km/h 11.3 km/h 81% 0 mm
23:49 5.7 °C 2.6 °C 1020.9 hPa NNW 4.8 km/h 11.3 km/h 80% 0 mm
23:54 5.7 °C 2.6 °C 1020.9 hPa NNW 4.8 km/h 6.4 km/h 80% 0 mm
23:59 5.7 °C 2.5 °C 1020.9 hPa NNW 4.8 km/h 11.3 km/h 80% 0 mm
Buffalo, New York, USA
Compliments of Weather Underground - 2.5 mb